Time;durP1;ratioP1;P1;durP2;ratioP2;P2;SDS_P1;SDS_P2;PMS_P1;PMS_P2;Temp;Humidity;BMP_temperature;BMP_pressure;BME280_temperature;BME280_humidity;BME280_pressure;Samples;Min_cycle;Max_cycle;Signal;HPM_P1;HPM_P2
2020/12/29 00:00:30;;;;;;;1.45;1.17;;;;;;;;;;5011394;28;20463;-70
2020/12/29 00:02:56;;;;;;;1.08;0.90;;;;;;;;;;5012614;28;20108;-71
2020/12/29 00:05:22;;;;;;;0.98;0.88;;;;;;;;;;5012356;28;20547;-70
2020/12/29 00:07:54;;;;;;;1.65;1.13;;;;;;;;;;5017817;28;20095;-70
2020/12/29 00:10:24;;;;;;;2.30;1.00;;;;;;;;;;5032265;28;20053;-70
2020/12/29 00:12:50;;;;;;;2.38;1.05;;;;;;;;;;5031062;28;20107;-70
2020/12/29 00:15:17;;;;;;;1.70;1.00;;;;;;;;;;5031912;28;20050;-71
2020/12/29 00:17:43;;;;;;;1.98;1.02;;;;;;;;;;5014104;28;20073;-70
2020/12/29 00:20:09;;;;;;;1.15;0.90;;;;;;;;;;5032171;28;20466;-71
2020/12/29 00:22:36;;;;;;;1.10;0.90;;;;;;;;;;5032012;28;20108;-70
2020/12/29 00:25:04;;;;;;;1.20;0.88;;;;;;;;;;5014476;28;20054;-70
2020/12/29 00:27:30;;;;;;;0.70;0.65;;;;;;;;;;5031641;28;20111;-70
2020/12/29 00:29:56;;;;;;;1.08;0.93;;;;;;;;;;5030848;28;20049;-70
2020/12/29 00:32:22;;;;;;;2.33;0.95;;;;;;;;;;5031825;28;20542;-70
2020/12/29 00:34:48;;;;;;;0.60;0.60;;;;;;;;;;5031868;28;20076;-71
2020/12/29 00:37:14;;;;;;;1.15;0.88;;;;;;;;;;5031435;28;20566;-70
2020/12/29 00:39:44;;;;;;;0.90;0.75;;;;;;;;;;5031771;28;20492;-71
2020/12/29 00:42:10;;;;;;;1.00;0.90;;;;;;;;;;5030657;28;20053;-70
2020/12/29 00:44:36;;;;;;;0.77;0.73;;;;;;;;;;5030601;28;20386;-70
2020/12/29 00:47:02;;;;;;;0.88;0.82;;;;;;;;;;5025982;28;20042;-71
2020/12/29 00:49:28;;;;;;;0.75;0.70;;;;;;;;;;5031695;28;20054;-70
2020/12/29 00:51:55;;;;;;;0.70;0.70;;;;;;;;;;5031657;28;20045;-71
2020/12/29 00:54:21;;;;;;;0.93;0.60;;;;;;;;;;5014116;28;20057;-70
2020/12/29 00:56:47;;;;;;;0.75;0.65;;;;;;;;;;5029953;28;20046;-70
2020/12/29 00:59:13;;;;;;;0.68;0.50;;;;;;;;;;5030495;28;20060;-71
2020/12/29 01:01:40;;;;;;;0.73;0.50;;;;;;;;;;5031680;28;20053;-71
2020/12/29 01:04:06;;;;;;;0.38;0.38;;;;;;;;;;5031596;28;20057;-71
2020/12/29 01:06:32;;;;;;;1.38;0.68;;;;;;;;;;5017717;28;20085;-71
2020/12/29 01:08:58;;;;;;;0.68;0.68;;;;;;;;;;5011769;28;20104;-70
2020/12/29 01:11:31;;;;;;;2.25;0.65;;;;;;;;;;5011708;28;20555;-71
2020/12/29 01:13:57;;;;;;;0.93;0.60;;;;;;;;;;5011581;28;20508;-71
2020/12/29 01:16:24;;;;;;;1.27;0.57;;;;;;;;;;5011417;28;20101;-71
2020/12/29 01:18:50;;;;;;;0.50;0.50;;;;;;;;;;5011696;28;20578;-71
2020/12/29 01:21:16;;;;;;;0.57;0.50;;;;;;;;;;5011873;28;20049;-71
2020/12/29 01:23:42;;;;;;;0.20;0.20;;;;;;;;;;5011378;28;20045;-71
2020/12/29 01:26:08;;;;;;;0.57;0.40;;;;;;;;;;5023759;28;20087;-71
2020/12/29 01:28:37;;;;;;;0.17;0.10;;;;;;;;;;5031398;28;20511;-71
2020/12/29 01:31:03;;;;;;;0.35;0.30;;;;;;;;;;5030261;28;20050;-71
2020/12/29 01:33:29;;;;;;;0.50;0.30;;;;;;;;;;5031391;28;20045;-71
2020/12/29 01:35:55;;;;;;;0.68;0.60;;;;;;;;;;5031033;28;20111;-71
2020/12/29 01:38:21;;;;;;;0.73;0.40;;;;;;;;;;5031267;28;20076;-70
2020/12/29 01:40:47;;;;;;;0.32;0.30;;;;;;;;;;5031323;28;20096;-71
2020/12/29 01:43:14;;;;;;;0.13;0.13;;;;;;;;;;5031256;28;20091;-70
2020/12/29 01:45:40;;;;;;;0.82;0.35;;;;;;;;;;5030864;28;20493;-70
2020/12/29 01:48:06;;;;;;;0.35;0.30;;;;;;;;;;5016424;28;20085;-71
2020/12/29 01:50:32;;;;;;;1.88;0.93;;;;;;;;;;5011341;28;20500;-71
2020/12/29 01:52:59;;;;;;;1.45;0.40;;;;;;;;;;5011407;28;20054;-71
2020/12/29 01:55:26;;;;;;;0.45;0.32;;;;;;;;;;5011317;28;20388;-71
2020/12/29 01:57:54;;;;;;;1.02;0.70;;;;;;;;;;5011421;28;20046;-71
2020/12/29 02:00:20;;;;;;;0.77;0.38;;;;;;;;;;5014168;28;20053;-71
2020/12/29 02:02:46;;;;;;;0.28;0.28;;;;;;;;;;5029749;28;20534;-71
2020/12/29 02:05:12;;;;;;;0.85;0.30;;;;;;;;;;5029579;28;20496;-71
2020/12/29 02:07:38;;;;;;;0.32;0.32;;;;;;;;;;5029754;28;20578;-70
2020/12/29 02:10:05;;;;;;;0.95;0.40;;;;;;;;;;5033284;28;20049;-71
2020/12/29 02:12:33;;;;;;;0.75;0.40;;;;;;;;;;5031657;28;20085;-71
2020/12/29 02:15:00;;;;;;;0.63;0.43;;;;;;;;;;5013401;28;20104;-71
2020/12/29 02:17:29;;;;;;;0.77;0.35;;;;;;;;;;5013332;28;20046;-72
2020/12/29 02:19:55;;;;;;;0.22;0.20;;;;;;;;;;5014766;28;20122;-70
2020/12/29 02:22:22;;;;;;;0.80;0.40;;;;;;;;;;5014808;28;20054;-71
2020/12/29 02:24:53;;;;;;;0.77;0.45;;;;;;;;;;5034095;28;20496;-70
2020/12/29 02:27:20;;;;;;;0.52;0.40;;;;;;;;;;5033903;28;20050;-70
2020/12/29 02:29:46;;;;;;;0.73;0.35;;;;;;;;;;5033169;28;20053;-71
2020/12/29 02:32:12;;;;;;;0.77;0.22;;;;;;;;;;5033028;28;20084;-71
2020/12/29 02:34:39;;;;;;;0.40;0.30;;;;;;;;;;5033995;28;20057;-71
2020/12/29 02:37:07;;;;;;;0.55;0.30;;;;;;;;;;5032599;28;20117;-70
2020/12/29 02:39:34;;;;;;;0.32;0.32;;;;;;;;;;5032745;28;20049;-71
2020/12/29 02:42:00;;;;;;;2.25;0.30;;;;;;;;;;5033998;28;20104;-71
2020/12/29 02:44:26;;;;;;;0.50;0.40;;;;;;;;;;5016182;28;20460;-71
2020/12/29 02:46:52;;;;;;;1.50;0.15;;;;;;;;;;5012915;28;20101;-71
2020/12/29 02:49:19;;;;;;;0.40;0.30;;;;;;;;;;5012757;28;20496;-70
2020/12/29 02:51:45;;;;;;;0.17;0.15;;;;;;;;;;5013858;28;20050;-70
2020/12/29 02:54:14;;;;;;;0.40;0.38;;;;;;;;;;5027818;28;20085;-70
2020/12/29 02:56:41;;;;;;;0.40;0.30;;;;;;;;;;5033643;28;20053;-71
2020/12/29 02:59:08;;;;;;;0.40;0.30;;;;;;;;;;5033715;28;20080;-71
2020/12/29 03:01:34;;;;;;;1.88;0.40;;;;;;;;;;5033619;28;20069;-70
2020/12/29 03:04:00;;;;;;;0.20;0.20;;;;;;;;;;5019403;28;20470;-70
2020/12/29 03:06:26;;;;;;;0.80;0.22;;;;;;;;;;5012302;28;20050;-70
2020/12/29 03:08:53;;;;;;;0.38;0.10;;;;;;;;;;5013706;28;20046;-70
2020/12/29 03:11:27;;;;;;;0.30;0.13;;;;;;;;;;4996077;28;20108;-70
2020/12/29 03:13:54;;;;;;;0.32;0.20;;;;;;;;;;5012324;28;20115;-70
2020/12/29 03:16:21;;;;;;;1.25;0.77;;;;;;;;;;5011906;28;20050;-71
2020/12/29 03:18:47;;;;;;;0.32;0.10;;;;;;;;;;5013406;28;20104;-70
2020/12/29 03:21:13;;;;;;;0.13;0.10;;;;;;;;;;5012195;28;20508;-71
2020/12/29 03:23:39;;;;;;;0.32;0.20;;;;;;;;;;5012232;28;20054;-71
2020/12/29 03:26:05;;;;;;;0.17;0.10;;;;;;;;;;5013140;28;20089;-70
2020/12/29 03:28:31;;;;;;;0.30;0.10;;;;;;;;;;5013136;28;20050;-70
2020/12/29 03:30:57;;;;;;;0.40;0.22;;;;;;;;;;5013284;28;20421;-70
2020/12/29 03:33:23;;;;;;;1.75;0.20;;;;;;;;;;5019114;28;20045;-71
2020/12/29 03:35:49;;;;;;;0.10;0.10;;;;;;;;;;5032716;28;20061;-70
2020/12/29 03:38:15;;;;;;;0.32;0.10;;;;;;;;;;5032862;28;20045;-70
2020/12/29 03:40:41;;;;;;;0.13;0.10;;;;;;;;;;5032914;28;20057;-70
2020/12/29 03:43:12;;;;;;;0.93;0.10;;;;;;;;;;5019610;28;20058;-70
2020/12/29 03:45:40;;;;;;;0.20;0.10;;;;;;;;;;5011526;28;20053;-71
2020/12/29 03:48:10;;;;;;;0.30;0.20;;;;;;;;;;5012898;28;20050;-71
2020/12/29 03:50:37;;;;;;;0.15;0.13;;;;;;;;;;5012961;28;20111;-70
2020/12/29 03:53:03;;;;;;;0.98;0.15;;;;;;;;;;5011780;28;20053;-71
2020/12/29 03:55:29;;;;;;;2.03;0.45;;;;;;;;;;5011356;28;20445;-70
2020/12/29 03:57:55;;;;;;;1.45;0.38;;;;;;;;;;5011683;28;20050;-70
2020/12/29 04:00:22;;;;;;;0.65;0.20;;;;;;;;;;5012623;28;20128;-70
2020/12/29 04:02:48;;;;;;;0.30;0.28;;;;;;;;;;5011624;28;20107;-70
2020/12/29 04:05:14;;;;;;;0.20;0.10;;;;;;;;;;5012487;28;20081;-71
2020/12/29 04:07:40;;;;;;;0.30;0.22;;;;;;;;;;5011429;28;20050;-70
2020/12/29 04:10:06;;;;;;;0.50;0.17;;;;;;;;;;5012923;28;20102;-71
2020/12/29 04:12:33;;;;;;;1.25;0.20;;;;;;;;;;5012460;28;20050;-71
2020/12/29 04:14:59;;;;;;;0.52;0.30;;;;;;;;;;5037790;22;20440;-73
2020/12/29 04:17:25;;;;;;;0.35;0.10;;;;;;;;;;5031873;28;20207;-73
2020/12/29 04:19:51;;;;;;;0.28;0.10;;;;;;;;;;5032292;28;20099;-73
2020/12/29 04:22:17;;;;;;;0.10;0.10;;;;;;;;;;5031903;28;20049;-73
2020/12/29 04:24:43;;;;;;;0.10;0.10;;;;;;;;;;5032061;28;20488;-73
2020/12/29 04:27:09;;;;;;;0.68;0.20;;;;;;;;;;5031814;28;20080;-73
2020/12/29 04:29:36;;;;;;;1.05;0.20;;;;;;;;;;5014628;28;20584;-73
2020/12/29 04:32:02;;;;;;;0.50;0.30;;;;;;;;;;5031588;28;20053;-73
2020/12/29 04:34:28;;;;;;;1.90;0.13;;;;;;;;;;5031516;28;20072;-73
2020/12/29 04:36:56;;;;;;;0.57;0.40;;;;;;;;;;5031828;28;20057;-73
2020/12/29 04:39:23;;;;;;;0.20;0.20;;;;;;;;;;5032022;28;20499;-73
2020/12/29 04:41:53;;;;;;;0.40;0.20;;;;;;;;;;4984474;28;20081;-73
2020/12/29 04:44:19;;;;;;;0.40;0.20;;;;;;;;;;4994563;28;20500;-73
2020/12/29 04:46:45;;;;;;;0.40;0.20;;;;;;;;;;4994577;28;20045;-73
2020/12/29 04:49:12;;;;;;;0.88;0.30;;;;;;;;;;4994708;28;20088;-73
2020/12/29 04:51:39;;;;;;;0.30;0.20;;;;;;;;;;5012057;28;20049;-73
2020/12/29 04:54:06;;;;;;;0.80;0.30;;;;;;;;;;5012102;28;20046;-73
2020/12/29 04:56:33;;;;;;;3.63;0.47;;;;;;;;;;4994166;28;20057;-72
2020/12/29 04:59:01;;;;;;;3.58;0.30;;;;;;;;;;5011994;28;20046;-73
2020/12/29 05:01:31;;;;;;;1.45;0.30;;;;;;;;;;4994638;28;20046;-72
2020/12/29 05:03:59;;;;;;;0.80;0.60;;;;;;;;;;4994815;28;20056;-72
2020/12/29 05:06:26;;;;;;;0.30;0.28;;;;;;;;;;5011643;28;20104;-73
2020/12/29 05:08:53;;;;;;;1.48;0.35;;;;;;;;;;5011962;28;20042;-72
2020/12/29 05:11:22;;;;;;;0.80;0.30;;;;;;;;;;5011967;28;20172;-72
2020/12/29 05:13:48;;;;;;;0.70;0.30;;;;;;;;;;5011875;28;20520;-73
2020/12/29 05:16:15;;;;;;;2.17;0.30;;;;;;;;;;5011510;28;20471;-73
2020/12/29 05:18:42;;;;;;;1.17;0.30;;;;;;;;;;5011758;28;20555;-73
2020/12/29 05:21:09;;;;;;;1.20;0.30;;;;;;;;;;4985661;28;20060;-73
2020/12/29 05:23:36;;;;;;;1.52;0.30;;;;;;;;;;5013706;28;20107;-72
2020/12/29 05:26:03;;;;;;;1.30;0.60;;;;;;;;;;5031509;28;20084;-72
2020/12/29 05:28:30;;;;;;;0.60;0.50;;;;;;;;;;5031140;28;20049;-72
2020/12/29 05:30:57;;;;;;;0.73;0.20;;;;;;;;;;5025777;28;20045;-73
2020/12/29 05:33:25;;;;;;;0.22;0.10;;;;;;;;;;4978545;28;20077;-72
2020/12/29 05:35:55;;;;;;;0.63;0.20;;;;;;;;;;5011407;28;20054;-73
2020/12/29 05:38:21;;;;;;;0.30;0.20;;;;;;;;;;4994617;28;20049;-73
2020/12/29 05:40:47;;;;;;;0.65;0.20;;;;;;;;;;4982384;28;20522;-73
2020/12/29 05:43:14;;;;;;;2.00;0.47;;;;;;;;;;5014612;28;20045;-73
2020/12/29 05:45:40;;;;;;;1.02;0.30;;;;;;;;;;5034827;28;20590;-72
2020/12/29 05:48:07;;;;;;;1.10;0.28;;;;;;;;;;5017376;28;20103;-72
2020/12/29 05:50:33;;;;;;;1.83;0.40;;;;;;;;;;5034871;28;20163;-73
2020/12/29 05:53:02;;;;;;;1.90;0.80;;;;;;;;;;5034880;28;20076;-72
2020/12/29 05:55:28;;;;;;;1.65;0.73;;;;;;;;;;5017022;28;20049;-73
2020/12/29 05:58:05;;;;;;;1.63;0.30;;;;;;;;;;5017296;28;20484;-72
2020/12/29 06:00:35;;;;;;;2.22;0.20;;;;;;;;;;5012840;28;20056;-72
2020/12/29 06:03:03;;;;;;;0.35;0.13;;;;;;;;;;5015118;28;20053;-72
2020/12/29 06:05:31;;;;;;;0.30;0.15;;;;;;;;;;5014758;28;20136;-72
2020/12/29 06:07:58;;;;;;;0.55;0.10;;;;;;;;;;5014870;28;20062;-72
2020/12/29 06:10:26;;;;;;;1.75;0.20;;;;;;;;;;4997618;28;20100;-73
2020/12/29 06:12:57;;;;;;;0.10;0.10;;;;;;;;;;4981704;28;20416;-72
2020/12/29 06:15:27;;;;;;;0.43;0.20;;;;;;;;;;4996935;28;20088;-73
2020/12/29 06:17:54;;;;;;;1.02;0.22;;;;;;;;;;5014825;28;20132;-73
2020/12/29 06:20:21;;;;;;;0.28;0.17;;;;;;;;;;4997654;28;20050;-72
2020/12/29 06:22:50;;;;;;;0.47;0.32;;;;;;;;;;4997325;28;20132;-72
2020/12/29 06:25:17;;;;;;;0.88;0.30;;;;;;;;;;4997012;28;20058;-72
2020/12/29 06:27:49;;;;;;;0.80;0.28;;;;;;;;;;5002547;28;20139;-73
2020/12/29 06:30:17;;;;;;;0.20;0.20;;;;;;;;;;5017191;28;20053;-72
2020/12/29 06:32:43;;;;;;;1.45;0.50;;;;;;;;;;5017021;28;20800;-72
2020/12/29 06:35:09;;;;;;;0.20;0.13;;;;;;;;;;4990782;28;20054;-73
2020/12/29 06:37:37;;;;;;;0.20;0.20;;;;;;;;;;5028242;28;20096;-73
2020/12/29 06:40:05;;;;;;;1.23;0.15;;;;;;;;;;5000440;28;20053;-73
2020/12/29 06:42:32;;;;;;;1.42;0.30;;;;;;;;;;5033930;28;20057;-73
2020/12/29 06:44:59;;;;;;;4.53;1.00;;;;;;;;;;5000122;28;20049;-72
2020/12/29 06:47:28;;;;;;;1.90;0.88;;;;;;;;;;4999876;28;20072;-73
2020/12/29 06:49:54;;;;;;;0.93;0.50;;;;;;;;;;5016450;28;20488;-72
2020/12/29 06:52:23;;;;;;;2.15;0.40;;;;;;;;;;5033726;28;20053;-72
2020/12/29 06:54:57;;;;;;;4.22;0.60;;;;;;;;;;5033192;28;20449;-72
2020/12/29 06:57:35;;;;;;;0.40;0.30;;;;;;;;;;5033527;28;20049;-72
2020/12/29 07:00:10;;;;;;;0.82;0.40;;;;;;;;;;5028433;28;20509;-73
2020/12/29 07:02:37;;;;;;;0.43;0.40;;;;;;;;;;5033432;28;20483;-72
2020/12/29 07:05:24;;;;;;;1.33;0.40;;;;;;;;;;5033404;28;20077;-73
2020/12/29 07:08:07;;;;;;;2.15;1.00;;;;;;;;;;5033661;28;20462;-72
2020/12/29 07:10:33;;;;;;;2.15;0.20;;;;;;;;;;5015867;28;20103;-72
2020/12/29 07:13:04;;;;;;;1.17;0.45;;;;;;;;;;5033495;28;20488;-73
2020/12/29 07:15:31;;;;;;;1.48;0.30;;;;;;;;;;5033009;28;20057;-72
2020/12/29 07:18:02;;;;;;;0.95;0.32;;;;;;;;;;5015976;28;20077;-73
2020/12/29 07:20:34;;;;;;;1.70;0.43;;;;;;;;;;5015695;28;20083;-72
2020/12/29 07:23:05;;;;;;;1.23;0.68;;;;;;;;;;5027318;28;20073;-72
2020/12/29 07:25:32;;;;;;;1.38;0.40;;;;;;;;;;5005511;28;20077;-73
2020/12/29 07:28:00;;;;;;;0.73;0.38;;;;;;;;;;5004997;28;20049;-72
2020/12/29 07:30:27;;;;;;;0.63;0.38;;;;;;;;;;5018169;28;20100;-72
2020/12/29 07:32:56;;;;;;;2.92;1.50;;;;;;;;;;4996076;28;20046;-72
2020/12/29 07:35:22;;;;;;;2.13;1.00;;;;;;;;;;5001554;28;20045;-75
2020/12/29 07:37:50;;;;;;;2.35;1.00;;;;;;;;;;4979770;28;20053;-69
2020/12/29 07:40:16;;;;;;;1.20;0.75;;;;;;;;;;5029850;28;20088;-70
2020/12/29 07:42:42;;;;;;;2.00;1.17;;;;;;;;;;5031142;28;20107;-70
2020/12/29 07:45:08;;;;;;;2.95;0.85;;;;;;;;;;5027344;28;20455;-70
2020/12/29 07:47:35;;;;;;;2.40;0.90;;;;;;;;;;5010867;28;20050;-72
2020/12/29 07:50:02;;;;;;;1.20;0.50;;;;;;;;;;5010835;28;20181;-72
2020/12/29 07:52:28;;;;;;;1.25;0.52;;;;;;;;;;5023214;28;20084;-72
2020/12/29 07:55:13;;;;;;;0.65;0.40;;;;;;;;;;5010810;28;20050;-72
2020/12/29 07:57:39;;;;;;;1.48;0.43;;;;;;;;;;4993037;28;20085;-72
2020/12/29 08:00:12;;;;;;;0.55;0.35;;;;;;;;;;5010764;28;20053;-72
2020/12/29 08:02:38;;;;;;;1.50;0.90;;;;;;;;;;5010594;28;20489;-72
2020/12/29 08:05:07;;;;;;;0.50;0.43;;;;;;;;;;5022265;28;20053;-72
2020/12/29 08:07:33;;;;;;;0.93;0.40;;;;;;;;;;5023870;28;20088;-72
2020/12/29 08:10:07;;;;;;;1.98;0.73;;;;;;;;;;5010254;28;20347;-72
2020/12/29 08:12:33;;;;;;;2.33;1.20;;;;;;;;;;5010408;28;20053;-72
2020/12/29 08:14:59;;;;;;;6.38;3.90;;;;;;;;;;4981490;28;20053;-72
2020/12/29 08:17:25;;;;;;;2.50;1.95;;;;;;;;;;4996182;28;20203;-72
2020/12/29 08:19:58;;;;;;;3.15;1.30;;;;;;;;;;5030082;28;20207;-72
2020/12/29 08:22:26;;;;;;;2.47;1.05;;;;;;;;;;5020729;28;20095;-72
2020/12/29 08:24:52;;;;;;;1.40;1.27;;;;;;;;;;5029560;28;20072;-72
2020/12/29 08:27:22;;;;;;;0.80;0.80;;;;;;;;;;5012454;28;20100;-72
2020/12/29 08:29:48;;;;;;;3.72;2.50;;;;;;;;;;5030104;28;20137;-72
2020/12/29 08:32:16;;;;;;;1.23;1.00;;;;;;;;;;4993601;28;20084;-71
2020/12/29 08:34:47;;;;;;;1.33;0.50;;;;;;;;;;5014705;28;20096;-71
2020/12/29 08:37:14;;;;;;;2.10;0.57;;;;;;;;;;4993008;28;20045;-72
2020/12/29 08:39:49;;;;;;;1.80;1.45;;;;;;;;;;4992640;28;20065;-71
2020/12/29 08:42:17;;;;;;;0.80;0.60;;;;;;;;;;5028346;28;20077;-71
2020/12/29 08:44:44;;;;;;;1.50;0.82;;;;;;;;;;5029730;28;20076;-74
2020/12/29 08:47:11;;;;;;;1.70;1.10;;;;;;;;;;5012026;28;20045;-74
2020/12/29 08:49:37;;;;;;;2.70;1.25;;;;;;;;;;5021430;28;20045;-73
2020/12/29 08:52:03;;;;;;;0.93;0.90;;;;;;;;;;4984025;28;20057;-71
2020/12/29 08:54:37;;;;;;;0.73;0.50;;;;;;;;;;5008701;28;20096;-74
2020/12/29 08:57:07;;;;;;;2.90;1.40;;;;;;;;;;5011302;28;20053;-74
2020/12/29 08:59:38;;;;;;;1.55;1.10;;;;;;;;;;5014148;28;20587;-75
2020/12/29 09:02:05;;;;;;;2.35;1.20;;;;;;;;;;4997516;28;20085;-74
2020/12/29 09:04:42;;;;;;;1.55;0.85;;;;;;;;;;5013158;28;20055;-73
2020/12/29 09:07:13;;;;;;;1.27;1.10;;;;;;;;;;5012204;28;20084;-73
2020/12/29 09:09:51;;;;;;;1.55;0.98;;;;;;;;;;5010818;28;20054;-74
2020/12/29 09:12:21;;;;;;;0.90;0.90;;;;;;;;;;5030274;28;20050;-74
2020/12/29 09:15:01;;;;;;;0.65;0.60;;;;;;;;;;5013712;28;20081;-75
2020/12/29 09:17:28;;;;;;;2.38;0.93;;;;;;;;;;4994337;28;20104;-73
2020/12/29 09:20:16;;;;;;;1.13;0.80;;;;;;;;;;5012327;28;20108;-74
2020/12/29 09:22:53;;;;;;;4.28;0.80;;;;;;;;;;5019094;28;20479;-74
2020/12/29 09:25:28;;;;;;;0.95;0.80;;;;;;;;;;5012833;28;20110;-74
2020/12/29 09:28:09;;;;;;;1.08;0.98;;;;;;;;;;5013769;28;20460;-75
2020/12/29 09:31:10;;;;;;;1.52;0.90;;;;;;;;;;4996349;28;20057;-73
2020/12/29 09:33:38;;;;;;;5.57;0.90;;;;;;;;;;5003710;28;20057;-77
2020/12/29 09:36:07;;;;;;;1.85;1.38;;;;;;;;;;4980821;28;20073;-72
2020/12/29 09:38:34;;;;;;;1.63;0.95;;;;;;;;;;5034719;28;20060;-72
2020/12/29 09:41:03;;;;;;;1.98;1.40;;;;;;;;;;5016859;28;20045;-73
2020/12/29 09:43:30;;;;;;;1.58;1.08;;;;;;;;;;5017390;28;20180;-73
2020/12/29 09:45:59;;;;;;;0.55;0.55;;;;;;;;;;5010370;28;20171;-70
2020/12/29 09:48:26;;;;;;;0.38;0.35;;;;;;;;;;5034606;28;20068;-71
2020/12/29 09:50:52;;;;;;;1.77;0.40;;;;;;;;;;5024363;28;20046;-71
2020/12/29 09:53:18;;;;;;;0.50;0.20;;;;;;;;;;5028021;28;20050;-72
2020/12/29 09:55:44;;;;;;;0.50;0.35;;;;;;;;;;4997125;28;20073;-71
2020/12/29 09:58:10;;;;;;;1.92;0.80;;;;;;;;;;4987152;28;20104;-72
2020/12/29 10:00:36;;;;;;;0.93;0.60;;;;;;;;;;4993489;28;20057;-69
2020/12/29 10:03:03;;;;;;;0.57;0.50;;;;;;;;;;4993884;28;20054;-72
2020/12/29 10:05:29;;;;;;;0.40;0.40;;;;;;;;;;4993039;28;20468;-72
2020/12/29 10:07:55;;;;;;;0.40;0.40;;;;;;;;;;4994546;28;20050;-72
2020/12/29 10:10:21;;;;;;;1.00;0.60;;;;;;;;;;4994289;28;20101;-72
2020/12/29 10:12:47;;;;;;;1.00;0.52;;;;;;;;;;4995050;28;20054;-72
2020/12/29 10:15:14;;;;;;;0.68;0.32;;;;;;;;;;4977416;28;20077;-73
2020/12/29 10:17:40;;;;;;;0.35;0.32;;;;;;;;;;5072109;23;20671;-79
2020/12/29 10:20:06;;;;;;;0.30;0.30;;;;;;;;;;4980243;28;20093;-79
2020/12/29 10:22:33;;;;;;;0.98;0.45;;;;;;;;;;4964545;28;20051;-78
2020/12/29 10:24:59;;;;;;;0.50;0.50;;;;;;;;;;4981802;28;20053;-78
2020/12/29 10:27:26;;;;;;;0.40;0.40;;;;;;;;;;4977617;28;20058;-78
2020/12/29 10:29:52;;;;;;;1.00;0.80;;;;;;;;;;4984546;28;20046;-78
2020/12/29 10:32:21;;;;;;;1.30;0.80;;;;;;;;;;4994224;28;20050;-78
2020/12/29 10:34:48;;;;;;;0.93;0.70;;;;;;;;;;4993114;28;20046;-78
2020/12/29 10:37:14;;;;;;;0.98;0.52;;;;;;;;;;4993114;28;20055;-78
2020/12/29 10:39:40;;;;;;;1.95;0.70;;;;;;;;;;4996106;28;20057;-78
2020/12/29 10:42:07;;;;;;;1.50;0.90;;;;;;;;;;4998378;28;20057;-79
2020/12/29 10:44:33;;;;;;;0.60;0.60;;;;;;;;;;5013364;28;20050;-78
2020/12/29 10:46:59;;;;;;;1.02;0.82;;;;;;;;;;5015597;28;20045;-79
2020/12/29 10:49:25;;;;;;;0.90;0.70;;;;;;;;;;5013924;28;20046;-78
2020/12/29 10:51:51;;;;;;;0.70;0.70;;;;;;;;;;4994423;28;20054;-77
2020/12/29 10:54:22;;;;;;;1.35;1.10;;;;;;;;;;4988920;28;20106;-76
2020/12/29 10:56:48;;;;;;;1.55;0.90;;;;;;;;;;5005507;28;20042;-76
2020/12/29 10:59:14;;;;;;;0.50;0.50;;;;;;;;;;4984744;28;20034;-76
2020/12/29 11:01:40;;;;;;;0.75;0.60;;;;;;;;;;4982293;28;20042;-76
2020/12/29 11:04:07;;;;;;;1.40;0.80;;;;;;;;;;5000068;28;20042;-76
2020/12/29 11:06:33;;;;;;;0.60;0.60;;;;;;;;;;4981185;28;20054;-77
2020/12/29 11:08:59;;;;;;;1.17;0.32;;;;;;;;;;4983761;28;20038;-77
2020/12/29 11:11:25;;;;;;;5.40;2.25;;;;;;;;;;4999029;28;20070;-76
2020/12/29 11:13:51;;;;;;;5.40;1.88;;;;;;;;;;5001480;28;20026;-77
2020/12/29 11:16:19;;;;;;;1.85;1.08;;;;;;;;;;5002655;28;20082;-76
2020/12/29 11:18:47;;;;;;;4.10;1.75;;;;;;;;;;5000058;28;20489;-77
2020/12/29 11:21:14;;;;;;;1.38;0.82;;;;;;;;;;4979832;28;20050;-78
2020/12/29 11:23:41;;;;;;;0.60;0.50;;;;;;;;;;4979713;28;20050;-77
2020/12/29 11:26:07;;;;;;;1.23;0.65;;;;;;;;;;4992696;28;20045;-77
2020/12/29 11:28:33;;;;;;;0.68;0.50;;;;;;;;;;4988003;28;20057;-81
2020/12/29 11:31:00;;;;;;;1.80;0.30;;;;;;;;;;4987866;28;20050;-80
2020/12/29 11:33:26;;;;;;;0.93;0.43;;;;;;;;;;4988653;28;20062;-79
2020/12/29 11:35:52;;;;;;;1.80;0.60;;;;;;;;;;4988718;28;20058;-79
2020/12/29 11:38:21;;;;;;;0.38;0.30;;;;;;;;;;4972879;28;20058;-79
2020/12/29 11:40:48;;;;;;;0.50;0.30;;;;;;;;;;4988531;28;20058;-78
2020/12/29 11:43:14;;;;;;;1.30;0.30;;;;;;;;;;4973207;28;20058;-80
2020/12/29 11:45:42;;;;;;;1.10;0.40;;;;;;;;;;4980434;28;20061;-88
2020/12/29 11:48:08;;;;;;;0.68;0.30;;;;;;;;;;4974808;28;20056;-88
2020/12/29 11:50:35;;;;;;;1.83;0.50;;;;;;;;;;4977287;28;20350;-84
2020/12/29 11:53:01;;;;;;;0.90;0.40;;;;;;;;;;4977570;28;20065;-84
2020/12/29 11:55:27;;;;;;;0.52;0.40;;;;;;;;;;4971980;28;20089;-82
2020/12/29 11:57:54;;;;;;;0.77;0.43;;;;;;;;;;4961099;28;20398;-85
2020/12/29 12:00:20;;;;;;;1.13;0.50;;;;;;;;;;4976406;28;20046;-84
2020/12/29 12:02:46;;;;;;;0.60;0.35;;;;;;;;;;4977225;28;20050;-83
2020/12/29 12:05:13;;;;;;;7.75;2.65;;;;;;;;;;4971382;28;20054;-82
2020/12/29 12:07:39;;;;;;;3.95;1.52;;;;;;;;;;4961583;28;20057;-83
2020/12/29 12:10:07;;;;;;;1.20;0.70;;;;;;;;;;4992623;28;20069;-83
2020/12/29 12:12:33;;;;;;;2.05;0.68;;;;;;;;;;4971291;28;20047;-83
2020/12/29 12:14:59;;;;;;;2.95;1.10;;;;;;;;;;4961270;28;20510;-83
2020/12/29 12:17:25;;;;;;;4.55;1.48;;;;;;;;;;4979750;28;20058;-83
2020/12/29 12:19:52;;;;;;;1.92;1.00;;;;;;;;;;4965428;28;20050;-83
2020/12/29 12:22:18;;;;;;;1.25;0.73;;;;;;;;;;4975585;28;20046;-83
2020/12/29 12:24:44;;;;;;;1.08;0.70;;;;;;;;;;4971049;28;20146;-84
2020/12/29 12:27:10;;;;;;;1.58;0.50;;;;;;;;;;4989489;28;20050;-77
2020/12/29 12:29:36;;;;;;;2.58;1.05;;;;;;;;;;4972302;28;20046;-78
2020/12/29 12:32:03;;;;;;;1.10;0.40;;;;;;;;;;4967218;28;20066;-78
2020/12/29 12:34:29;;;;;;;1.77;0.90;;;;;;;;;;4988071;28;20077;-78
2020/12/29 12:36:55;;;;;;;2.50;0.95;;;;;;;;;;4981528;28;20138;-78
2020/12/29 12:39:23;;;;;;;1.42;0.70;;;;;;;;;;4978749;28;20048;-78
2020/12/29 12:41:49;;;;;;;1.30;0.52;;;;;;;;;;4978779;28;20053;-78
2020/12/29 12:44:15;;;;;;;0.88;0.45;;;;;;;;;;4973060;28;20066;-77
2020/12/29 12:46:42;;;;;;;0.52;0.45;;;;;;;;;;4978721;28;20442;-78
2020/12/29 12:49:09;;;;;;;0.60;0.20;;;;;;;;;;4980252;28;20047;-77
2020/12/29 12:51:49;;;;;;;0.30;0.30;;;;;;;;;;4981888;28;20054;-78
2020/12/29 12:54:16;;;;;;;0.45;0.35;;;;;;;;;;4980584;28;20058;-78
2020/12/29 12:56:42;;;;;;;1.05;0.35;;;;;;;;;;4980391;28;20078;-78
2020/12/29 12:59:12;;;;;;;0.35;0.32;;;;;;;;;;4980689;28;20050;-78
2020/12/29 13:01:39;;;;;;;0.65;0.40;;;;;;;;;;4980656;28;20065;-78
2020/12/29 13:04:07;;;;;;;0.22;0.20;;;;;;;;;;4979937;28;20445;-78
2020/12/29 13:06:33;;;;;;;0.68;0.60;;;;;;;;;;4963445;28;20061;-78
2020/12/29 13:09:00;;;;;;;0.63;0.40;;;;;;;;;;4979530;28;20513;-77
2020/12/29 13:11:26;;;;;;;2.22;1.45;;;;;;;;;;4981172;28;20062;-78
2020/12/29 13:13:52;;;;;;;2.45;1.17;;;;;;;;;;4979420;28;20061;-78
2020/12/29 13:16:20;;;;;;;1.98;0.82;;;;;;;;;;4995322;28;20069;-78
2020/12/29 13:18:47;;;;;;;0.80;0.65;;;;;;;;;;4964194;28;20051;-77
2020/12/29 13:21:13;;;;;;;1.67;0.60;;;;;;;;;;4979965;28;20054;-78
2020/12/29 13:23:58;;;;;;;0.82;0.52;;;;;;;;;;4981917;28;20069;-80
2020/12/29 13:26:24;;;;;;;1.35;0.65;;;;;;;;;;4929761;28;21608;-78
2020/12/29 13:28:51;;;;;;;3.72;1.90;;;;;;;;;;4961571;28;20054;-77
2020/12/29 13:31:20;;;;;;;1.55;0.82;;;;;;;;;;4980584;28;20054;-78
2020/12/29 13:33:46;;;;;;;15.30;5.45;;;;;;;;;;4983151;28;20046;-79
2020/12/29 13:36:13;;;;;;;6.97;3.00;;;;;;;;;;4963467;28;20170;-86
2020/12/29 13:38:39;;;;;;;17.40;5.45;;;;;;;;;;4940140;28;20043;-88
2020/12/29 13:41:06;;;;;;;23.10;7.30;;;;;;;;;;4975284;28;20533;-76
2020/12/29 13:43:33;;;;;;;38.08;10.90;;;;;;;;;;4975219;28;20050;-76
2020/12/29 13:45:59;;;;;;;38.20;12.10;;;;;;;;;;4975134;28;20050;-77
2020/12/29 13:48:26;;;;;;;5.15;1.90;;;;;;;;;;4975045;28;20061;-76
2020/12/29 13:50:52;;;;;;;2.00;0.98;;;;;;;;;;4970803;28;20046;-76
2020/12/29 13:53:19;;;;;;;2.33;0.73;;;;;;;;;;4973781;28;20054;-76
2020/12/29 13:55:46;;;;;;;1.90;1.80;;;;;;;;;;4939532;28;20510;-76
2020/12/29 13:58:12;;;;;;;1.80;1.30;;;;;;;;;;4939766;28;20051;-76
2020/12/29 14:00:39;;;;;;;2.50;1.10;;;;;;;;;;4955534;28;20051;-76
2020/12/29 14:03:07;;;;;;;2.10;0.73;;;;;;;;;;4939748;28;20058;-77
2020/12/29 14:05:36;;;;;;;4.35;1.20;;;;;;;;;;4965527;28;20137;-76
2020/12/29 14:08:04;;;;;;;1.10;0.80;;;;;;;;;;4978428;28;20061;-77
2020/12/29 14:10:31;;;;;;;3.15;0.90;;;;;;;;;;4973122;28;20133;-76
2020/12/29 14:12:57;;;;;;;1.85;0.90;;;;;;;;;;4962511;28;20057;-77
2020/12/29 14:15:23;;;;;;;1.88;0.88;;;;;;;;;;4977579;28;20058;-76
2020/12/29 14:17:50;;;;;;;1.08;0.70;;;;;;;;;;4961934;28;20129;-76
2020/12/29 14:20:18;;;;;;;1.10;0.90;;;;;;;;;;4948797;28;20050;-76
2020/12/29 14:22:44;;;;;;;3.28;0.75;;;;;;;;;;4973941;28;20495;-77
2020/12/29 14:25:11;;;;;;;1.92;0.65;;;;;;;;;;4958416;28;20519;-78
2020/12/29 14:27:37;;;;;;;2.15;1.10;;;;;;;;;;4957928;28;20055;-77
2020/12/29 14:30:04;;;;;;;3.25;2.30;;;;;;;;;;4958109;28;20077;-78
2020/12/29 14:32:31;;;;;;;2.08;1.48;;;;;;;;;;4947498;28;20058;-78
2020/12/29 14:34:57;;;;;;;1.83;1.60;;;;;;;;;;4963668;28;20058;-78
2020/12/29 14:37:23;;;;;;;3.72;2.28;;;;;;;;;;5004717;28;20529;-78
2020/12/29 14:39:49;;;;;;;3.25;1.38;;;;;;;;;;4977364;28;20054;-78
2020/12/29 14:42:17;;;;;;;2.28;1.25;;;;;;;;;;4969986;28;20503;-78
2020/12/29 14:44:43;;;;;;;3.00;1.17;;;;;;;;;;4956218;28;20066;-78